Terminal Aerodrome Forecast
Issued by NWS Mobile, AL

Home | Current Version | Previous Version | Text Only | Print | Product List | Glossary On
Versions: 1 2 3 4 5 6 7 8 9 10 11 12 13 14 15
000
FTUS44 KMOB 280520
TAFMOB
TAF
KMOB 280520Z 2806/2906 VRB03KT P6SM FEW050 SCT100 BKN200
     FM281500 VRB03KT P6SM VCTS BKN050CB
     FM281800 21006KT 6SM -TSRA BKN040CB
      TEMPO 2820/2824 VRB15G25KT 3SM TSRA BKN030CB
     FM290000 36004KT P6SM VCTS BKN050CB=

USA.gov is the U.S. government's official web portal to all federal, state and local government web resources and services.